Time;durP1;ratioP1;P1;durP2;ratioP2;P2;SDS_P1;SDS_P2;PMS_P1;PMS_P2;Temp;Humidity;BMP_temperature;BMP_pressure;BME280_temperature;BME280_humidity;BME280_pressure;Samples;Min_cycle;Max_cycle;Signal;HPM_P1;HPM_P2
2023/07/13 00:00:27;;;;;;;;;;;21.80;87.10;;;;;;6189328;23;19900;-87
2023/07/13 00:02:55;;;;;;;;;;;21.90;87.20;;;;;;6189051;23;19985;-86
2023/07/13 00:05:22;;;;;;;;;;;21.90;87.10;;;;;;6189036;23;19904;-86
2023/07/13 00:07:48;;;;;;;;;;;21.80;87.20;;;;;;6189764;23;19915;-87
2023/07/13 00:10:13;;;;;;;;;;;21.80;87.20;;;;;;6189065;23;19919;-84
2023/07/13 00:12:39;;;;;;;;;;;21.90;87.20;;;;;;6215760;23;20051;-84
2023/07/13 00:15:07;;;;;;;;;;;21.80;87.10;;;;;;6189401;23;19900;-84
2023/07/13 00:17:32;;;;;;;;;;;21.80;87.10;;;;;;6216402;23;20277;-84
2023/07/13 00:19:58;;;;;;;;;;;21.80;87.20;;;;;;6189659;23;19990;-84
2023/07/13 00:22:25;;;;;;;;;;;21.90;87.30;;;;;;6189065;23;20341;-84
2023/07/13 00:24:52;;;;;;;;;;;21.80;87.20;;;;;;6189207;23;19950;-84
2023/07/13 00:27:17;;;;;;;;;;;21.90;87.20;;;;;;6189562;23;19900;-85
2023/07/13 00:29:43;;;;;;;;;;;21.90;87.20;;;;;;6194270;23;19923;-86
2023/07/13 00:32:09;;;;;;;;;;;21.90;87.00;;;;;;6223889;23;19995;-86
2023/07/13 00:34:34;;;;;;;;;;;21.90;86.90;;;;;;6197138;23;19904;-86
2023/07/13 00:37:00;;;;;;;;;;;22.00;86.90;;;;;;6198043;23;19900;-86
2023/07/13 00:39:25;;;;;;;;;;;22.00;86.80;;;;;;6198840;23;19908;-85
2023/07/13 00:41:51;;;;;;;;;;;22.00;86.80;;;;;;6198026;23;19907;-85
2023/07/13 00:44:18;;;;;;;;;;;22.00;86.70;;;;;;6197926;23;19900;-86
2023/07/13 00:46:44;;;;;;;;;;;21.90;86.70;;;;;;6198027;23;19900;-87
2023/07/13 00:49:11;;;;;;;;;;;21.90;86.60;;;;;;6197066;23;20326;-88
2023/07/13 00:51:42;;;;;;;;;;;22.00;86.70;;;;;;6197487;23;19977;-89
2023/07/13 00:54:11;;;;;;;;;;;22.00;86.70;;;;;;6224997;23;19994;-89
2023/07/13 00:56:36;;;;;;;;;;;21.90;86.70;;;;;;6225503;23;20333;-86
2023/07/13 00:59:03;;;;;;;;;;;21.90;86.80;;;;;;6199290;23;19904;-86
2023/07/13 01:01:29;;;;;;;;;;;21.90;86.90;;;;;;6198647;23;19907;-85
2023/07/13 01:03:54;;;;;;;;;;;21.90;87.00;;;;;;6197470;23;19926;-88
2023/07/13 01:06:19;;;;;;;;;;;21.90;87.10;;;;;;6224661;23;19927;-88
2023/07/13 01:08:45;;;;;;;;;;;21.90;87.10;;;;;;6197027;23;19904;-87
2023/07/13 01:11:10;;;;;;;;;;;21.80;87.00;;;;;;6222632;23;19943;-89
2023/07/13 01:13:36;;;;;;;;;;;21.80;87.00;;;;;;6195769;23;19969;-87
2023/07/13 01:16:04;;;;;;;;;;;21.90;87.10;;;;;;6195778;23;19907;-87
2023/07/13 01:18:29;;;;;;;;;;;21.80;87.10;;;;;;6195748;23;19910;-87
2023/07/13 01:20:59;;;;;;;;;;;21.80;87.10;;;;;;6195926;23;19900;-87
2023/07/13 01:23:26;;;;;;;;;;;21.80;87.10;;;;;;6222301;23;19900;-87
2023/07/13 01:25:52;;;;;;;;;;;21.80;87.10;;;;;;6195126;23;19924;-87
2023/07/13 01:28:17;;;;;;;;;;;21.80;87.10;;;;;;6194742;23;20249;-87
2023/07/13 01:30:45;;;;;;;;;;;21.80;87.10;;;;;;6194761;23;19903;-87
2023/07/13 01:33:12;;;;;;;;;;;21.70;87.10;;;;;;6194389;23;19952;-87
2023/07/13 01:35:37;;;;;;;;;;;21.80;87.20;;;;;;6222140;23;19985;-87
2023/07/13 01:38:05;;;;;;;;;;;21.70;87.10;;;;;;6221041;23;19904;-87
2023/07/13 01:40:30;;;;;;;;;;;21.80;87.20;;;;;;6194064;23;19900;-88
2023/07/13 01:42:56;;;;;;;;;;;21.80;87.10;;;;;;6221028;23;19942;-87
2023/07/13 01:45:21;;;;;;;;;;;21.70;87.10;;;;;;6193596;23;19904;-86
2023/07/13 01:47:47;;;;;;;;;;;21.70;87.10;;;;;;6193665;23;19899;-87
2023/07/13 01:50:12;;;;;;;;;;;21.70;87.10;;;;;;6219875;23;20254;-88
2023/07/13 01:52:37;;;;;;;;;;;21.80;87.10;;;;;;6192534;23;19899;-86
2023/07/13 01:55:03;;;;;;;;;;;21.80;87.00;;;;;;6219679;23;19915;-87
2023/07/13 01:57:28;;;;;;;;;;;21.80;87.00;;;;;;6219567;23;19904;-87
2023/07/13 01:59:54;;;;;;;;;;;21.80;87.10;;;;;;6219763;23;19903;-87
2023/07/13 02:02:19;;;;;;;;;;;21.80;86.90;;;;;;6191888;23;19915;-85
2023/07/13 02:04:45;;;;;;;;;;;21.80;86.80;;;;;;6192203;23;19899;-86
2023/07/13 02:07:10;;;;;;;;;;;21.90;86.80;;;;;;6192556;23;19907;-87
2023/07/13 02:09:36;;;;;;;;;;;21.80;86.70;;;;;;6192471;23;19922;-87
2023/07/13 02:12:01;;;;;;;;;;;21.90;86.70;;;;;;6219452;23;19900;-86
2023/07/13 02:14:27;;;;;;;;;;;21.90;86.70;;;;;;6191695;23;19899;-87
2023/07/13 02:16:52;;;;;;;;;;;21.90;86.60;;;;;;6218262;23;19972;-87
2023/07/13 02:19:18;;;;;;;;;;;21.90;86.50;;;;;;6191610;23;19982;-86
2023/07/13 02:21:43;;;;;;;;;;;21.90;86.50;;;;;;6191943;23;19904;-86
2023/07/13 02:24:08;;;;;;;;;;;21.90;86.40;;;;;;6191397;23;19900;-86
2023/07/13 02:26:34;;;;;;;;;;;21.90;86.50;;;;;;6191464;23;19899;-86
2023/07/13 02:28:59;;;;;;;;;;;21.90;86.50;;;;;;6219088;23;19903;-86
2023/07/13 02:31:25;;;;;;;;;;;21.80;86.60;;;;;;6191367;23;19899;-86
2023/07/13 02:33:50;;;;;;;;;;;21.90;86.80;;;;;;6190485;23;19899;-86
2023/07/13 02:36:16;;;;;;;;;;;21.80;86.70;;;;;;6218252;23;19947;-86
2023/07/13 02:38:42;;;;;;;;;;;21.80;86.80;;;;;;6190855;23;19907;-87
2023/07/13 02:41:08;;;;;;;;;;;21.80;86.90;;;;;;6191349;23;19936;-86
2023/07/13 02:43:34;;;;;;;;;;;21.80;86.90;;;;;;6190182;23;19954;-86
2023/07/13 02:46:06;;;;;;;;;;;21.70;86.90;;;;;;6190361;23;20311;-87
2023/07/13 02:48:32;;;;;;;;;;;21.80;87.00;;;;;;6190623;23;19983;-87
2023/07/13 02:50:57;;;;;;;;;;;21.80;87.00;;;;;;6190598;23;19900;-86
2023/07/13 02:53:23;;;;;;;;;;;21.70;87.00;;;;;;6216903;23;20294;-86
2023/07/13 02:55:48;;;;;;;;;;;21.70;87.00;;;;;;6190206;23;19923;-86
2023/07/13 02:58:16;;;;;;;;;;;21.70;87.10;;;;;;6188144;23;20242;-86
2023/07/13 03:00:47;;;;;;;;;;;21.80;87.10;;;;;;6216243;23;19900;-86
2023/07/13 03:03:13;;;;;;;;;;;21.70;87.00;;;;;;6216329;23;19907;-86
2023/07/13 03:05:40;;;;;;;;;;;21.80;87.20;;;;;;6189219;23;19900;-87
2023/07/13 03:08:06;;;;;;;;;;;21.70;87.20;;;;;;6216927;23;20280;-85
2023/07/13 03:10:31;;;;;;;;;;;21.70;87.10;;;;;;6189958;23;19904;-86
2023/07/13 03:12:56;;;;;;;;;;;21.70;87.10;;;;;;6189327;23;19945;-86
2023/07/13 03:15:22;;;;;;;;;;;21.70;87.10;;;;;;6215967;23;19912;-87
2023/07/13 03:17:48;;;;;;;;;;;21.70;87.10;;;;;;6189931;23;19900;-86
2023/07/13 03:20:13;;;;;;;;;;;21.70;87.10;;;;;;6216393;23;20296;-86
2023/07/13 03:22:39;;;;;;;;;;;21.70;87.10;;;;;;6189117;23;19904;-86
2023/07/13 03:25:05;;;;;;;;;;;21.70;87.10;;;;;;6189470;23;19907;-86
2023/07/13 03:27:30;;;;;;;;;;;21.70;87.00;;;;;;6189627;23;19907;-86
2023/07/13 03:29:56;;;;;;;;;;;21.70;87.00;;;;;;6189661;23;19923;-86
2023/07/13 03:32:21;;;;;;;;;;;21.80;87.00;;;;;;6188988;23;19903;-86
2023/07/13 03:34:46;;;;;;;;;;;21.80;86.90;;;;;;6215978;23;19900;-86
2023/07/13 03:37:12;;;;;;;;;;;21.80;86.80;;;;;;6189345;23;19920;-86
2023/07/13 03:39:37;;;;;;;;;;;21.80;86.70;;;;;;6189473;23;19943;-86
2023/07/13 03:42:03;;;;;;;;;;;21.80;86.60;;;;;;6189225;23;19903;-88
2023/07/13 03:44:28;;;;;;;;;;;21.80;86.60;;;;;;6189272;23;19907;-86
2023/07/13 03:46:54;;;;;;;;;;;21.80;86.50;;;;;;6189246;23;19900;-86
2023/07/13 03:49:19;;;;;;;;;;;21.80;86.50;;;;;;6189710;23;19934;-86
2023/07/13 03:51:45;;;;;;;;;;;21.90;86.50;;;;;;6216030;23;20314;-86
2023/07/13 03:54:10;;;;;;;;;;;21.80;86.50;;;;;;6217896;23;19904;-88
2023/07/13 03:56:35;;;;;;;;;;;21.90;86.40;;;;;;6197253;23;19934;-88
2023/07/13 03:59:02;;;;;;;;;;;21.90;86.50;;;;;;6197873;23;19903;-88
2023/07/13 04:01:27;;;;;;;;;;;21.80;86.50;;;;;;6220786;23;19947;-87
2023/07/13 04:32:19;;;;;;;;;;;21.70;86.90;;;;;;6220009;23;19926;-82
2023/07/13 04:34:44;;;;;;;;;;;21.40;86.70;;;;;;6193741;23;19923;-80
2023/07/13 04:37:10;;;;;;;;;;;21.90;87.00;;;;;;6193842;23;19900;-81
2023/07/13 04:39:35;;;;;;;;;;;21.60;86.90;;;;;;6193747;23;19908;-81
2023/07/13 04:42:01;;;;;;;;;;;21.60;86.90;;;;;;6194375;23;19944;-80
2023/07/13 04:44:26;;;;;;;;;;;21.70;87.00;;;;;;6192915;23;19904;-81
2023/07/13 04:47:21;;;;;;;;;;;21.80;87.00;;;;;;6192261;23;19900;-87
2023/07/13 04:49:55;;;;;;;;;;;21.60;87.40;;;;;;6075927;23;20559;-85
2023/07/13 05:20:26;;;;;;;;;;;21.80;86.00;;;;;;6188612;23;19931;-84
2023/07/13 05:26:23;;;;;;;;;;;;;;;;;;;;;
2023/07/13 05:31:55;;;;;;;;;;;21.80;85.80;;;;;;6064863;23;19981;-85
2023/07/13 05:37:22;;;;;;;;;;;21.80;85.70;;;;;;6186411;22;19916;-86
2023/07/13 06:51:10;;;;;;;;;;;;;;;;;;;;;
2023/07/13 07:38:15;;;;;;;;;;;22.00;84.00;;;;;;6222385;23;19938;-82
2023/07/13 07:41:25;;;;;;;;;;;21.50;83.50;;;;;;6197116;23;19907;-83
2023/07/13 07:44:12;;;;;;;;;;;22.00;83.90;;;;;;6192173;23;20211;-85
2023/07/13 07:49:47;;;;;;;;;;;21.90;83.70;;;;;;6098537;23;19985;-84
2023/07/13 07:58:33;;;;;;;;;;;22.00;83.80;;;;;;6208604;22;19919;-86
2023/07/13 08:19:31;;;;;;;;;;;22.30;83.30;;;;;;6216173;23;20394;-84
2023/07/13 10:39:58;;;;;;;;;;;22.10;82.20;;;;;;6162462;23;19973;-79
2023/07/13 10:42:29;;;;;;;;;;;22.50;82.40;;;;;;6211295;23;19939;-79
2023/07/13 10:44:54;;;;;;;;;;;22.50;82.40;;;;;;6180697;23;19907;-78
2023/07/13 10:47:20;;;;;;;;;;;22.50;82.40;;;;;;6180696;23;20354;-78
2023/07/13 10:49:47;;;;;;;;;;;22.50;82.40;;;;;;6181036;23;19958;-77
2023/07/13 10:52:32;;;;;;;;;;;22.50;82.40;;;;;;6180505;23;19910;-78
2023/07/13 10:54:57;;;;;;;;;;;22.50;82.40;;;;;;6183093;23;20220;-80
2023/07/13 10:57:22;;;;;;;;;;;22.50;82.40;;;;;;6184045;23;19943;-80
2023/07/13 11:00:08;;;;;;;;;;;22.50;82.30;;;;;;6179960;23;19919;-79
2023/07/13 11:02:33;;;;;;;;;;;22.50;82.30;;;;;;6154010;23;19904;-79
2023/07/13 11:05:12;;;;;;;;;;;22.50;82.20;;;;;;6182649;23;19982;-79
2023/07/13 11:07:52;;;;;;;;;;;22.50;82.10;;;;;;6182253;23;19904;-80
2023/07/13 11:10:37;;;;;;;;;;;22.50;82.10;;;;;;6180448;23;19900;-79
2023/07/13 11:13:02;;;;;;;;;;;22.50;82.10;;;;;;6179763;23;19987;-78
2023/07/13 11:15:33;;;;;;;;;;;22.50;82.10;;;;;;6180666;23;19939;-78
2023/07/13 11:18:02;;;;;;;;;;;22.50;82.10;;;;;;6181636;23;19904;-80
2023/07/13 11:20:32;;;;;;;;;;;22.40;82.00;;;;;;6184755;23;19911;-79
2023/07/13 11:23:10;;;;;;;;;;;22.50;82.20;;;;;;6184053;23;19901;-79
2023/07/13 11:25:37;;;;;;;;;;;22.50;82.20;;;;;;6179456;23;19976;-78
2023/07/13 11:28:13;;;;;;;;;;;22.40;82.30;;;;;;6182896;23;20283;-79
2023/07/13 11:30:57;;;;;;;;;;;22.40;82.40;;;;;;6182082;23;19900;-79
2023/07/13 11:33:24;;;;;;;;;;;22.40;82.50;;;;;;6182949;23;19900;-78
2023/07/13 11:35:50;;;;;;;;;;;22.40;82.70;;;;;;6182292;23;19954;-78
2023/07/13 11:38:20;;;;;;;;;;;22.40;82.70;;;;;;6181831;23;19908;-80
2023/07/13 11:40:46;;;;;;;;;;;22.30;82.60;;;;;;6183639;23;19962;-79
2023/07/13 11:43:14;;;;;;;;;;;22.30;82.60;;;;;;6182857;23;20020;-78
2023/07/13 11:45:39;;;;;;;;;;;22.40;82.70;;;;;;6180372;23;19911;-78
2023/07/13 11:48:05;;;;;;;;;;;22.40;82.80;;;;;;6184482;23;19908;-78
2023/07/13 11:50:30;;;;;;;;;;;22.30;82.80;;;;;;6186726;23;19924;-80
2023/07/13 11:52:58;;;;;;;;;;;22.30;82.50;;;;;;6181308;23;19911;-79
2023/07/13 11:55:24;;;;;;;;;;;22.40;82.60;;;;;;6187500;23;19908;-81
2023/07/13 11:57:53;;;;;;;;;;;22.30;82.60;;;;;;6189299;23;19911;-84
2023/07/13 12:00:24;;;;;;;;;;;22.40;82.50;;;;;;6188147;23;19908;-83
2023/07/13 12:17:02;;;;;;;;;;;22.40;82.80;;;;;;6039617;23;19932;-84
2023/07/13 12:48:30;;;;;;;;;;;22.40;82.20;;;;;;6159177;23;19919;-84
2023/07/13 13:25:25;;;;;;;;;;;22.20;83.00;;;;;;6185263;22;19935;-82
2023/07/13 13:39:30;;;;;;;;;;;22.10;82.80;;;;;;6186564;22;19920;-84
2023/07/13 13:41:55;;;;;;;;;;;22.00;82.90;;;;;;6186069;23;19901;-83
2023/07/13 14:20:15;;;;;;;;;;;;;;;;;;;;;
2023/07/13 14:51:03;;;;;;;;;;;21.90;83.30;;;;;;6096819;23;19907;-83
2023/07/13 14:53:29;;;;;;;;;;;21.90;83.30;;;;;;6075820;23;19936;-83
2023/07/13 14:55:54;;;;;;;;;;;21.90;83.30;;;;;;6113133;23;19904;-84
2023/07/13 14:58:23;;;;;;;;;;;21.90;83.40;;;;;;6188152;23;20574;-84
2023/07/13 15:00:50;;;;;;;;;;;21.10;83.00;;;;;;6191264;23;19908;-84
2023/07/13 15:03:24;;;;;;;;;;;21.90;83.50;;;;;;6189858;23;19911;-85
2023/07/13 15:05:50;;;;;;;;;;;21.90;83.40;;;;;;6191952;23;19904;-84
2023/07/13 15:08:16;;;;;;;;;;;21.90;83.50;;;;;;6190450;23;20394;-84
2023/07/13 15:10:41;;;;;;;;;;;21.80;83.40;;;;;;6192528;23;20326;-83
2023/07/13 15:13:20;;;;;;;;;;;21.90;83.50;;;;;;6193380;23;19904;-83
2023/07/13 15:15:47;;;;;;;;;;;21.80;83.90;;;;;;6195107;23;19907;-83
2023/07/13 15:18:14;;;;;;;;;;;21.80;83.40;;;;;;6194613;23;19900;-84
2023/07/13 15:20:39;;;;;;;;;;;21.90;83.50;;;;;;6193815;23;20231;-83
2023/07/13 15:23:05;;;;;;;;;;;21.90;83.40;;;;;;6193881;23;19904;-85
2023/07/13 15:25:33;;;;;;;;;;;21.90;83.50;;;;;;6194021;23;20329;-84
2023/07/13 15:27:59;;;;;;;;;;;21.90;83.60;;;;;;6194556;23;19903;-84
2023/07/13 15:30:33;;;;;;;;;;;21.80;83.70;;;;;;6194493;23;20312;-85
2023/07/13 15:33:05;;;;;;;;;;;21.90;83.60;;;;;;6193204;23;19907;-84
2023/07/13 15:35:31;;;;;;;;;;;21.90;83.50;;;;;;6194115;23;20323;-84
2023/07/13 15:37:57;;;;;;;;;;;21.90;83.40;;;;;;6220482;23;19954;-85
2023/07/13 15:40:23;;;;;;;;;;;21.90;83.20;;;;;;6193373;23;19908;-84
2023/07/13 15:42:48;;;;;;;;;;;21.90;83.10;;;;;;6193713;23;19904;-83
2023/07/13 15:45:15;;;;;;;;;;;21.90;83.10;;;;;;6192949;23;19900;-84
2023/07/13 15:47:43;;;;;;;;;;;21.90;83.10;;;;;;6193892;23;19904;-84
2023/07/13 15:50:11;;;;;;;;;;;22.00;82.80;;;;;;6193234;23;19954;-84
2023/07/13 15:52:37;;;;;;;;;;;21.90;82.80;;;;;;6192876;23;19899;-84
2023/07/13 15:55:02;;;;;;;;;;;21.90;82.70;;;;;;6194070;23;19903;-83
2023/07/13 15:57:28;;;;;;;;;;;22.00;82.80;;;;;;6193775;23;19948;-84
2023/07/13 15:59:53;;;;;;;;;;;22.00;82.90;;;;;;6220198;23;19903;-83
2023/07/13 16:02:20;;;;;;;;;;;22.40;83.40;;;;;;6219736;23;19904;-84
2023/07/13 16:04:46;;;;;;;;;;;21.90;83.20;;;;;;6192410;23;20652;-84
2023/07/13 16:07:13;;;;;;;;;;;21.90;83.40;;;;;;6193337;23;19969;-85
2023/07/13 16:09:40;;;;;;;;;;;22.30;83.60;;;;;;6193183;23;19900;-83
2023/07/13 16:21:36;;;;;;;;;;;21.80;83.60;;;;;;6189098;23;20326;-84
2023/07/13 16:24:02;;;;;;;;;;;21.90;83.60;;;;;;6183835;23;19896;-83
2023/07/13 16:26:39;;;;;;;;;;;21.80;83.60;;;;;;6184180;23;19900;-83
2023/07/13 16:29:17;;;;;;;;;;;21.90;83.60;;;;;;6184078;23;19900;-82
2023/07/13 16:31:56;;;;;;;;;;;21.90;83.60;;;;;;6183939;23;19938;-82
2023/07/13 16:34:23;;;;;;;;;;;21.90;83.70;;;;;;6185123;23;19986;-83
2023/07/13 16:36:49;;;;;;;;;;;21.80;83.70;;;;;;6183847;23;19900;-82
2023/07/13 16:39:15;;;;;;;;;;;21.80;83.80;;;;;;6184215;23;19904;-83
2023/07/13 16:41:41;;;;;;;;;;;21.80;83.90;;;;;;6184211;23;19900;-83
2023/07/13 16:44:18;;;;;;;;;;;21.80;83.90;;;;;;6183459;23;19912;-82
2023/07/13 16:46:45;;;;;;;;;;;21.80;83.90;;;;;;6183982;23;19900;-82
2023/07/13 16:49:37;;;;;;;;;;;21.80;84.00;;;;;;6183950;23;19908;-84
2023/07/13 16:52:03;;;;;;;;;;;21.80;84.00;;;;;;6179704;23;20230;-84
2023/07/13 16:54:37;;;;;;;;;;;21.80;84.00;;;;;;6185293;23;19929;-84
2023/07/13 16:57:05;;;;;;;;;;;21.80;84.00;;;;;;6183731;23;19900;-84
2023/07/13 16:59:33;;;;;;;;;;;21.80;84.00;;;;;;6183676;23;19911;-84
2023/07/13 17:01:59;;;;;;;;;;;21.90;84.10;;;;;;6183703;23;19900;-85
2023/07/13 17:04:27;;;;;;;;;;;21.90;84.00;;;;;;6188167;23;19900;-85
2023/07/13 17:06:53;;;;;;;;;;;21.90;83.80;;;;;;6189934;23;19942;-86
2023/07/13 17:09:19;;;;;;;;;;;21.90;83.80;;;;;;6190173;23;19900;-85
2023/07/13 17:11:45;;;;;;;;;;;21.90;83.60;;;;;;6189474;23;20372;-82
2023/07/13 17:14:14;;;;;;;;;;;22.00;83.50;;;;;;6190015;23;19944;-84
2023/07/13 17:16:40;;;;;;;;;;;21.90;83.50;;;;;;6189177;23;19901;-85
2023/07/13 17:19:11;;;;;;;;;;;22.00;83.40;;;;;;6195290;23;20318;-84
2023/07/13 17:21:36;;;;;;;;;;;22.00;83.40;;;;;;6194440;23;19949;-84
2023/07/13 17:24:02;;;;;;;;;;;22.00;83.40;;;;;;6194818;23;19942;-85
2023/07/13 17:26:29;;;;;;;;;;;22.00;83.40;;;;;;6223070;23;19927;-85
2023/07/13 17:28:54;;;;;;;;;;;22.00;83.40;;;;;;6196248;23;19936;-85
2023/07/13 17:31:21;;;;;;;;;;;21.90;83.40;;;;;;6221632;23;19900;-85
2023/07/13 17:33:47;;;;;;;;;;;21.90;83.50;;;;;;6194215;23;19907;-83
2023/07/13 17:36:14;;;;;;;;;;;22.00;83.80;;;;;;6193718;23;19903;-84
2023/07/13 17:38:50;;;;;;;;;;;22.00;83.90;;;;;;6194250;23;19950;-84
2023/07/13 17:41:16;;;;;;;;;;;21.80;83.90;;;;;;6194597;23;19943;-83
2023/07/13 17:43:42;;;;;;;;;;;21.80;84.00;;;;;;6193801;23;19908;-84
2023/07/13 17:46:12;;;;;;;;;;;21.80;84.10;;;;;;6222538;23;19900;-84
2023/07/13 17:48:37;;;;;;;;;;;21.80;84.10;;;;;;6194663;23;19899;-83
2023/07/13 17:51:03;;;;;;;;;;;21.80;84.20;;;;;;6194264;23;19931;-84
2023/07/13 17:53:28;;;;;;;;;;;21.70;84.20;;;;;;6194152;23;19931;-84
2023/07/13 17:55:53;;;;;;;;;;;21.80;84.30;;;;;;6193844;23;19907;-84
2023/07/13 17:58:21;;;;;;;;;;;21.70;84.30;;;;;;6221286;23;20390;-84
2023/07/13 18:00:48;;;;;;;;;;;21.70;84.30;;;;;;6194258;23;19904;-85
2023/07/13 18:03:14;;;;;;;;;;;21.70;84.40;;;;;;6193387;23;19899;-85
2023/07/13 18:05:40;;;;;;;;;;;21.70;84.40;;;;;;6193782;23;19907;-84
2023/07/13 18:08:14;;;;;;;;;;;21.70;84.40;;;;;;6192815;23;19924;-85
2023/07/13 18:10:39;;;;;;;;;;;21.70;84.40;;;;;;6221704;23;19955;-85
2023/07/13 18:13:05;;;;;;;;;;;21.70;84.50;;;;;;6194037;23;19904;-84
2023/07/13 18:15:31;;;;;;;;;;;21.70;84.50;;;;;;6194572;23;19907;-85
2023/07/13 18:17:58;;;;;;;;;;;21.70;84.50;;;;;;6194956;23;19922;-85
2023/07/13 18:20:24;;;;;;;;;;;21.70;84.60;;;;;;6221370;23;19907;-84
2023/07/13 18:22:49;;;;;;;;;;;21.60;84.50;;;;;;6221030;23;19900;-83
2023/07/13 18:25:16;;;;;;;;;;;21.70;84.60;;;;;;6192404;23;20136;-84
2023/07/13 18:27:42;;;;;;;;;;;21.70;84.50;;;;;;6220937;23;19939;-85
2023/07/13 18:30:12;;;;;;;;;;;21.60;84.50;;;;;;6192838;23;19899;-85
2023/07/13 18:32:39;;;;;;;;;;;21.60;84.50;;;;;;6194342;23;19958;-84
2023/07/13 18:35:10;;;;;;;;;;;21.60;84.50;;;;;;6195897;23;19923;-84
2023/07/13 18:37:37;;;;;;;;;;;21.60;84.30;;;;;;6222716;23;19906;-83
2023/07/13 18:40:02;;;;;;;;;;;21.70;84.30;;;;;;6195705;23;19908;-84
2023/07/13 18:44:56;;;;;;;;;;;21.70;84.10;;;;;;6190315;22;19923;-85
2023/07/13 18:53:50;;;;;;;;;;;22.10;84.40;;;;;;6188423;23;19946;-85
2023/07/13 18:56:16;;;;;;;;;;;21.80;84.10;;;;;;6186366;23;19975;-86
2023/07/13 18:58:42;;;;;;;;;;;21.80;84.20;;;;;;6186457;23;20247;-86
2023/07/13 19:01:25;;;;;;;;;;;21.70;84.10;;;;;;6186494;23;19900;-85
2023/07/13 19:03:51;;;;;;;;;;;21.70;84.20;;;;;;6187029;23;19900;-86
2023/07/13 19:06:17;;;;;;;;;;;21.80;84.40;;;;;;6186476;23;19907;-85
2023/07/13 19:08:43;;;;;;;;;;;21.70;84.30;;;;;;6186588;23;19907;-85
2023/07/13 19:11:13;;;;;;;;;;;21.70;84.40;;;;;;6185630;23;19910;-85
2023/07/13 19:13:38;;;;;;;;;;;21.70;84.50;;;;;;6185453;23;19911;-84
2023/07/13 19:16:04;;;;;;;;;;;21.60;84.50;;;;;;6184796;23;20216;-85
2023/07/13 19:18:29;;;;;;;;;;;21.60;84.60;;;;;;6185136;23;19900;-86
2023/07/13 19:20:57;;;;;;;;;;;21.70;84.60;;;;;;6184339;23;20279;-84
2023/07/13 19:23:23;;;;;;;;;;;21.60;84.70;;;;;;6184939;23;20216;-90
2023/07/13 19:25:51;;;;;;;;;;;21.60;84.60;;;;;;6186013;23;19904;-85
2023/07/13 19:28:24;;;;;;;;;;;21.60;84.50;;;;;;6182271;23;19904;-87
2023/07/13 19:30:50;;;;;;;;;;;21.60;84.60;;;;;;6185133;23;19904;-86
2023/07/13 19:33:16;;;;;;;;;;;21.60;84.70;;;;;;6185831;23;20311;-87
2023/07/13 19:35:43;;;;;;;;;;;21.60;84.70;;;;;;6184498;23;19900;-86
2023/07/13 19:40:57;;;;;;;9.38;3.00;;;21.50;84.30;;;;;;5098748;27;20837;-86
2023/07/13 19:43:22;;;;;;;10.52;3.42;;;21.60;84.80;;;;;;5085542;28;20032;-85
2023/07/13 19:45:48;;;;;;;8.57;3.47;;;21.60;84.80;;;;;;5084864;28;20031;-86
2023/07/13 19:48:14;;;;;;;7.90;3.28;;;21.50;84.80;;;;;;5084545;28;20027;-87
2023/07/13 19:50:41;;;;;;;10.50;3.33;;;21.60;84.80;;;;;;5084664;28;20064;-85
2023/07/13 19:53:15;;;;;;;7.65;3.00;;;21.60;85.30;;;;;;5085459;28;20893;-84
2023/07/13 19:55:41;;;;;;;10.45;3.58;;;21.60;84.80;;;;;;5086158;28;20028;-85
2023/07/13 19:58:10;;;;;;;12.57;3.40;;;21.60;84.70;;;;;;5084581;28;20488;-85
2023/07/13 20:00:35;;;;;;;9.00;3.47;;;21.60;84.80;;;;;;5085947;28;20074;-86
2023/07/13 20:03:01;;;;;;;8.35;3.35;;;21.60;84.70;;;;;;5083642;28;20812;-85
2023/07/13 20:05:26;;;;;;;8.68;3.50;;;21.60;84.80;;;;;;5084143;28;20013;-85
2023/07/13 20:07:56;;;;;;;11.10;4.00;;;21.60;84.70;;;;;;5084140;28;20056;-85
2023/07/13 20:10:30;;;;;;;8.90;3.60;;;21.60;84.60;;;;;;5084267;28;20032;-85
2023/07/13 20:12:59;;;;;;;8.70;3.30;;;21.70;84.60;;;;;;5083536;28;20032;-85
2023/07/13 20:15:26;;;;;;;8.80;3.28;;;21.70;84.50;;;;;;5084957;28;20078;-84
2023/07/13 20:17:54;;;;;;;8.20;3.45;;;21.70;84.40;;;;;;5084565;28;20048;-86
2023/07/13 20:20:33;;;;;;;8.85;3.50;;;21.70;84.40;;;;;;5094076;28;20050;-86
2023/07/13 20:23:00;;;;;;;9.23;3.15;;;21.70;84.40;;;;;;5090109;28;20058;-86
2023/07/13 20:25:31;;;;;;;7.13;3.20;;;21.70;84.30;;;;;;5092442;28;20050;-86
2023/07/13 20:28:04;;;;;;;7.10;2.92;;;21.70;84.30;;;;;;5072006;28;20032;-85
2023/07/13 20:30:32;;;;;;;7.68;3.30;;;21.70;84.30;;;;;;5071193;28;20028;-84
2023/07/13 20:36:09;;;;;;;9.25;3.72;;;21.60;83.50;;;;;;5560869;22;20614;-85
2023/07/13 20:38:34;;;;;;;12.40;4.22;;;21.60;82.40;;;;;;5011720;28;20037;-85
2023/07/13 20:41:00;;;;;;;16.55;4.30;;;21.50;81.70;;;;;;5011863;28;20065;-87
2023/07/13 20:43:27;;;;;;;14.23;4.68;;;21.40;81.10;;;;;;5028755;28;20025;-86
2023/07/13 20:45:58;;;;;;;16.42;4.18;;;21.40;81.00;;;;;;5027748;28;20029;-86
2023/07/13 20:48:39;;;;;;;18.27;4.80;;;21.40;81.10;;;;;;5027970;28;20022;-82
2023/07/13 20:51:06;;;;;;;15.10;4.43;;;21.40;81.10;;;;;;4993278;28;20086;-86
2023/07/13 20:53:32;;;;;;;16.48;4.70;;;21.40;80.60;;;;;;5026385;28;20065;-85
2023/07/13 20:55:58;;;;;;;16.13;5.05;;;21.30;80.20;;;;;;4999813;28;20509;-86
2023/07/13 20:58:24;;;;;;;15.32;4.20;;;21.40;80.30;;;;;;4994597;28;20080;-85
2023/07/13 21:00:50;;;;;;;14.68;4.40;;;21.30;80.10;;;;;;4993147;28;20026;-87
2023/07/13 21:03:26;;;;;;;16.00;4.55;;;21.30;80.20;;;;;;5003577;28;20029;-85
2023/07/13 21:05:54;;;;;;;18.15;4.63;;;21.30;80.00;;;;;;5000433;28;20030;-86
2023/07/13 21:08:22;;;;;;;14.43;4.10;;;21.30;79.90;;;;;;5008200;28;20026;-86
2023/07/13 21:10:48;;;;;;;12.50;4.28;;;21.30;80.00;;;;;;5014904;28;20061;-86
2023/07/13 21:13:15;;;;;;;12.35;4.25;;;21.30;80.00;;;;;;4996829;28;20536;-86
2023/07/13 21:15:43;;;;;;;12.75;3.97;;;21.30;79.90;;;;;;4999789;28;20343;-86
2023/07/13 21:18:24;;;;;;;10.35;3.80;;;21.30;79.70;;;;;;5014349;28;20823;-86
2023/07/13 21:20:52;;;;;;;11.25;4.00;;;21.30;79.90;;;;;;4995938;28;20406;-84
2023/07/13 21:23:37;;;;;;;8.63;3.83;;;21.30;79.90;;;;;;5007643;28;20075;-85
2023/07/13 21:26:04;;;;;;;9.93;3.85;;;21.30;79.80;;;;;;5010496;28;20021;-86
2023/07/13 21:28:35;;;;;;;10.15;3.55;;;21.30;79.60;;;;;;5013271;28;20107;-84
2023/07/13 21:31:03;;;;;;;10.17;4.17;;;21.30;79.90;;;;;;5014858;28;20104;-84
2023/07/13 21:33:29;;;;;;;9.75;3.88;;;21.30;79.80;;;;;;5003410;28;20022;-85
2023/07/13 21:35:55;;;;;;;10.98;3.90;;;21.40;80.10;;;;;;4999237;28;20030;-85
2023/07/13 21:38:42;;;;;;;9.68;3.75;;;21.30;79.80;;;;;;4989418;28;20061;-86
2023/07/13 21:41:19;;;;;;;8.90;3.75;;;21.30;79.90;;;;;;4975631;28;20586;-86
2023/07/13 21:43:45;;;;;;;8.30;3.58;;;21.30;80.00;;;;;;4992906;28;20386;-84
2023/07/13 21:46:12;;;;;;;10.75;4.05;;;21.30;80.00;;;;;;4987213;28;20031;-86
2023/07/13 21:48:37;;;;;;;9.25;3.70;;;21.30;79.80;;;;;;5001892;28;20911;-84
2023/07/13 21:51:14;;;;;;;11.05;3.58;;;21.30;79.80;;;;;;5013925;28;20113;-86
2023/07/13 21:53:40;;;;;;;8.55;3.83;;;21.40;79.80;;;;;;5031928;28;20026;-85
2023/07/13 21:56:09;;;;;;;8.77;3.78;;;21.40;79.80;;;;;;5011403;28;20029;-86
2023/07/13 21:58:35;;;;;;;10.20;3.47;;;21.40;79.70;;;;;;5012150;28;20026;-86
2023/07/13 22:01:03;;;;;;;7.43;3.40;;;21.30;79.60;;;;;;4993264;28;20032;-86
2023/07/13 22:03:33;;;;;;;7.35;3.63;;;21.30;79.50;;;;;;4973364;28;20026;-86
2023/07/13 22:05:59;;;;;;;7.85;3.33;;;21.30;79.00;;;;;;5006848;28;20033;-86
2023/07/13 22:08:37;;;;;;;7.10;3.78;;;21.30;79.00;;;;;;5013837;28;20113;-85
2023/07/13 22:11:11;;;;;;;11.52;3.47;;;21.30;79.20;;;;;;4998697;28;20449;-87
2023/07/13 22:13:37;;;;;;;7.25;3.30;;;21.20;79.30;;;;;;4993283;28;20116;-85
2023/07/13 22:16:11;;;;;;;7.15;3.30;;;21.20;79.20;;;;;;4983002;28;20558;-85
2023/07/13 22:18:37;;;;;;;9.20;3.83;;;21.20;79.20;;;;;;4988421;28;20025;-84
2023/07/13 22:21:02;;;;;;;8.13;3.60;;;21.20;79.30;;;;;;5003579;28;20029;-85
2023/07/13 22:23:28;;;;;;;7.38;3.38;;;21.20;79.40;;;;;;5007736;28;20033;-85
2023/07/13 22:25:56;;;;;;;7.60;3.30;;;21.20;79.50;;;;;;5002522;28;20034;-86
2023/07/13 22:28:24;;;;;;;6.43;3.60;;;21.10;79.30;;;;;;5010468;28;20026;-85
2023/07/13 22:30:52;;;;;;;7.78;3.67;;;21.10;79.50;;;;;;4988384;28;20084;-86
2023/07/13 22:33:21;;;;;;;9.02;3.50;;;21.20;79.50;;;;;;5010691;28;20018;-86
2023/07/13 22:35:47;;;;;;;7.28;3.45;;;21.10;79.40;;;;;;4992330;28;20030;-86
2023/07/13 22:38:15;;;;;;;7.13;3.30;;;21.10;79.40;;;;;;4990186;28;20042;-84
2023/07/13 22:40:42;;;;;;;9.23;3.30;;;21.10;79.40;;;;;;4992309;28;20026;-85
2023/07/13 22:43:15;;;;;;;9.43;3.35;;;21.10;79.30;;;;;;4992578;28;20025;-84
2023/07/13 22:45:41;;;;;;;6.43;2.90;;;21.10;79.40;;;;;;4996167;28;20030;-86